createdAt,value
2019-05-06T12:36:19.289Z,92.60
2019-05-06T12:39:06.837Z,92.70
2019-05-06T12:41:37.129Z,92.00
2019-05-06T12:44:05.594Z,92.50
2019-05-06T12:46:35.700Z,93.00
2019-05-06T12:49:04.423Z,93.10
2019-05-06T12:51:32.917Z,93.10
2019-05-06T12:54:03.558Z,93.30
2019-05-06T12:56:31.777Z,93.80
2019-05-06T12:59:02.124Z,93.90
2019-05-06T13:01:33.506Z,93.30
2019-05-06T13:04:04.097Z,93.50
2019-05-06T13:06:33.216Z,93.60
2019-05-06T13:09:04.701Z,93.50
2019-05-06T13:11:31.150Z,93.40
2019-05-06T13:14:04.082Z,94.00
2019-05-06T13:16:53.015Z,94.40
2019-05-06T13:19:22.902Z,94.30
2019-05-06T13:21:50.975Z,93.60
2019-05-06T13:24:19.521Z,94.30
2019-05-06T13:26:47.996Z,94.40
2019-05-06T13:29:22.671Z,93.20
2019-05-06T13:31:52.965Z,93.10
2019-05-06T13:34:23.452Z,92.80
2019-05-06T13:36:53.332Z,92.00
2019-05-06T13:39:23.766Z,91.80
2019-05-06T13:41:52.822Z,92.10
2019-05-06T13:44:22.796Z,92.50
2019-05-06T13:46:53.260Z,92.20
2019-05-06T13:49:32.753Z,90.90
2019-05-06T13:52:04.540Z,90.80
2019-05-06T13:54:33.344Z,91.90
2019-05-06T13:57:02.975Z,92.20
2019-05-06T13:59:34.765Z,92.80
2019-05-06T14:02:15.953Z,91.80
2019-05-06T14:04:44.216Z,92.00
2019-05-06T14:07:13.266Z,91.60
2019-05-06T14:09:43.747Z,91.40
2019-05-06T14:12:12.005Z,91.70
2019-05-06T14:14:42.510Z,91.30
2019-05-06T14:17:12.300Z,90.60
2019-05-06T14:19:42.934Z,91.40
2019-05-06T14:22:12.553Z,91.30
2019-05-06T14:27:32.347Z,91.50
2019-05-06T14:30:05.247Z,91.60
2019-05-06T14:32:33.692Z,91.30
2019-05-06T14:35:02.133Z,91.50
2019-05-06T14:37:32.802Z,90.10
2019-05-06T14:40:02.012Z,90.50
2019-05-06T14:42:32.436Z,90.10
2019-05-06T14:45:00.822Z,89.40
2019-05-06T14:47:32.759Z,89.50
2019-05-06T14:50:03.680Z,90.60
2019-05-06T14:52:33.393Z,89.70
2019-05-06T14:55:03.322Z,89.30
2019-05-06T14:57:32.383Z,90.40
2019-05-06T15:00:00.883Z,89.40
2019-05-06T15:02:29.382Z,90.10
2019-05-06T15:04:57.844Z,91.00
2019-05-06T15:07:26.288Z,90.50
2019-05-06T15:10:07.953Z,89.60
2019-05-06T15:12:24.934Z,90.10
2019-05-06T15:14:53.379Z,90.20
2019-05-06T15:17:23.876Z,89.70
2019-05-06T15:19:52.857Z,90.10
2019-05-06T15:22:22.522Z,88.30
2019-05-06T15:24:53.623Z,89.70
2019-05-06T15:27:22.790Z,89.30
2019-05-06T15:29:54.315Z,87.50
2019-05-06T15:32:24.412Z,88.50
2019-05-06T15:35:02.415Z,87.80
2019-05-06T15:37:33.861Z,89.10
2019-05-06T15:40:03.038Z,89.30
2019-05-06T15:42:34.070Z,90.30
2019-05-06T15:45:01.874Z,89.00
2019-05-06T15:47:32.274Z,89.50
2019-05-06T15:50:00.491Z,90.00
2019-05-06T15:52:28.962Z,90.10
2019-05-06T15:54:57.399Z,90.80
2019-05-06T15:57:25.875Z,90.30
2019-05-06T15:59:54.344Z,90.50
2019-05-06T16:02:23.471Z,90.70
2019-05-06T16:04:52.015Z,90.60
2019-05-06T16:07:24.458Z,90.40
2019-05-06T16:09:55.054Z,90.60
2019-05-06T16:12:22.075Z,90.70
2019-05-06T16:14:52.831Z,90.90
2019-05-06T16:17:23.564Z,90.80
2019-05-06T16:19:50.985Z,90.90
2019-05-06T16:22:19.395Z,91.10
2019-05-06T16:25:07.358Z,91.30
2019-05-06T16:27:35.794Z,91.20
2019-05-06T16:30:06.922Z,90.80
2019-05-06T16:32:35.354Z,91.40
2019-05-06T16:35:05.990Z,90.90
2019-05-06T16:37:34.471Z,91.40
2019-05-06T16:40:02.984Z,91.00
2019-05-06T16:42:31.565Z,91.30
2019-05-06T16:45:00.011Z,91.50
2019-05-06T16:47:44.375Z,91.30
2019-05-06T16:50:13.451Z,91.80
2019-05-06T16:52:44.794Z,92.30
2019-05-06T16:55:17.894Z,92.50
2019-05-06T16:57:47.943Z,92.60
2019-05-06T17:00:18.363Z,93.00
2019-05-06T17:02:57.697Z,92.70
2019-05-06T17:05:35.187Z,92.50
2019-05-06T17:08:03.653Z,92.40
2019-05-06T17:10:32.333Z,92.70
2019-05-06T17:13:03.002Z,93.30
2019-05-06T17:15:32.195Z,92.40
2019-05-06T17:18:03.002Z,92.80
2019-05-06T17:20:32.590Z,92.70
2019-05-06T17:23:02.924Z,92.30
2019-05-06T17:25:33.529Z,92.50
2019-05-06T17:28:03.478Z,92.20
2019-05-06T17:30:39.260Z,91.90
2019-05-06T17:33:25.440Z,92.30
2019-05-06T17:35:53.856Z,92.30
2019-05-06T17:38:23.948Z,92.70
2019-05-06T17:40:52.525Z,92.90
2019-05-06T17:43:22.570Z,92.90
2019-05-06T17:46:01.674Z,93.20
2019-05-06T17:48:36.770Z,93.10
2019-05-06T17:51:09.572Z,93.40
2019-05-06T17:53:42.448Z,93.30
2019-05-06T17:56:12.373Z,93.50
2019-05-06T17:58:42.266Z,93.40
2019-05-06T18:01:12.571Z,93.30
2019-05-06T18:03:41.097Z,93.90
2019-05-06T18:06:13.899Z,94.20
2019-05-06T18:08:39.771Z,94.10
2019-05-06T18:11:08.261Z,94.20
2019-05-06T18:13:36.847Z,94.60
2019-05-06T18:16:05.283Z,95.00
2019-05-06T18:18:33.795Z,95.10
2019-05-06T18:21:02.633Z,95.20
2019-05-06T18:23:33.432Z,95.10
2019-05-06T18:26:03.158Z,95.40
2019-05-06T18:28:32.355Z,95.50
2019-05-06T18:31:03.112Z,95.70
2019-05-06T18:33:32.697Z,95.70
2019-05-06T18:36:02.578Z,95.50
2019-05-06T18:38:33.463Z,95.70
2019-05-06T18:41:02.082Z,95.40
2019-05-06T18:43:32.671Z,95.60
2019-05-06T18:46:02.746Z,96.00
2019-05-06T18:48:32.885Z,96.70
2019-05-06T18:51:12.634Z,97.00
2019-05-06T18:53:42.598Z,96.20
2019-05-06T18:56:12.707Z,96.30
2019-05-06T18:58:44.307Z,96.70
2019-05-06T19:01:13.625Z,97.50
2019-05-06T19:03:45.274Z,97.70
2019-05-06T19:06:13.718Z,98.20
2019-05-06T19:08:43.776Z,97.80
2019-05-06T19:11:18.347Z,98.00
2019-05-06T19:13:47.531Z,98.00
2019-05-06T19:16:16.677Z,98.30
2019-05-06T19:18:45.164Z,98.30
2019-05-06T19:21:13.606Z,98.50
2019-05-06T19:23:42.803Z,98.90
2019-05-06T19:26:12.358Z,99.10
2019-05-06T19:28:42.876Z,99.30
2019-05-06T19:31:12.318Z,98.90
2019-05-06T19:33:42.937Z,99.30
2019-05-06T19:36:12.612Z,99.50
2019-05-06T19:38:42.372Z,99.60
2019-05-06T19:41:12.853Z,99.90
2019-05-06T19:43:41.091Z,99.90
2019-05-06T19:46:11.854Z,99.90
2019-05-06T19:48:39.748Z,99.90
2019-05-06T19:51:08.211Z,99.90
2019-05-06T19:53:36.635Z,99.90
2019-05-06T19:56:05.075Z,99.90
2019-05-06T19:58:34.017Z,99.90
2019-05-06T20:01:03.951Z,99.90
2019-05-06T20:03:32.853Z,99.90
2019-05-06T20:06:19.458Z,99.90
2019-05-06T20:08:49.566Z,99.90
2019-05-06T20:11:25.427Z,99.90
2019-05-06T20:13:54.002Z,99.90
2019-05-06T20:16:22.987Z,99.90
2019-05-06T20:18:52.600Z,99.90
2019-05-06T20:21:23.060Z,99.90
2019-05-06T20:23:52.612Z,99.90
2019-05-06T20:26:21.948Z,99.90
2019-05-06T20:28:52.432Z,99.90
2019-05-06T20:31:22.486Z,99.90
2019-05-06T20:33:52.785Z,99.90
2019-05-06T20:36:22.568Z,99.90
2019-05-06T20:38:51.301Z,99.90
2019-05-06T20:41:21.939Z,99.90
2019-05-06T20:43:49.843Z,99.90
2019-05-06T20:46:18.299Z,99.90
2019-05-06T20:48:46.730Z,99.90
2019-05-06T20:51:15.163Z,99.90
2019-05-06T20:53:43.607Z,99.90
2019-05-06T20:56:12.490Z,99.90
2019-05-06T20:58:41.999Z,99.90
2019-05-06T21:01:10.655Z,99.90
2019-05-06T21:03:39.064Z,99.90
2019-05-06T21:06:07.528Z,99.90
2019-05-06T21:08:35.935Z,99.90
2019-05-06T21:11:04.406Z,99.90
2019-05-06T21:13:35.441Z,99.90
2019-05-06T21:16:03.140Z,99.90
2019-05-06T21:18:32.450Z,99.90
2019-05-06T21:21:02.144Z,99.90
2019-05-06T21:23:32.140Z,99.90
2019-05-06T21:26:03.084Z,99.90
2019-05-06T21:28:31.145Z,99.90
2019-05-06T21:30:59.625Z,99.90
2019-05-06T21:33:47.394Z,99.90
2019-05-06T21:36:15.840Z,99.90
2019-05-06T21:38:44.290Z,99.90
2019-05-06T21:41:12.782Z,99.90
2019-05-06T21:43:47.100Z,99.90
2019-05-06T21:46:12.942Z,99.90
2019-05-06T21:48:42.044Z,99.90
2019-05-06T21:51:12.298Z,99.90
2019-05-06T21:53:40.821Z,99.90
2019-05-06T21:56:09.337Z,99.90
2019-05-06T21:58:37.751Z,99.90
2019-05-06T22:01:07.998Z,99.90
2019-05-06T22:03:36.470Z,99.90
2019-05-06T22:06:05.091Z,99.90
2019-05-06T22:08:33.554Z,99.90
2019-05-06T22:11:02.979Z,99.90
2019-05-06T22:13:33.236Z,99.90
2019-05-06T22:16:04.835Z,99.90
2019-05-06T22:18:33.078Z,99.90
2019-05-06T22:21:05.798Z,99.90
2019-05-06T22:23:51.834Z,99.90
2019-05-06T22:26:37.555Z,99.90
2019-05-06T22:29:14.789Z,99.90
2019-05-06T22:31:47.715Z,99.90
2019-05-06T22:34:16.216Z,99.90
2019-05-06T22:36:44.671Z,99.90
2019-05-06T22:39:13.080Z,99.90
2019-05-06T22:41:43.908Z,99.90
2019-05-06T22:44:14.043Z,99.90
2019-05-06T22:46:42.430Z,99.90
2019-05-06T22:49:13.133Z,99.90
2019-05-06T22:51:42.559Z,99.90
2019-05-06T22:54:11.227Z,99.90
2019-05-06T22:56:39.686Z,99.90
2019-05-06T22:59:08.092Z,99.90
2019-05-06T23:01:43.078Z,99.90
2019-05-06T23:04:11.951Z,99.90
2019-05-06T23:06:40.407Z,99.90
2019-05-06T23:09:09.227Z,99.90
2019-05-06T23:11:38.319Z,99.90
2019-05-06T23:14:06.884Z,99.90
2019-05-06T23:16:35.375Z,99.90
2019-05-06T23:19:03.804Z,99.90
2019-05-06T23:21:33.737Z,99.90
2019-05-06T23:24:02.267Z,99.90
2019-05-06T23:26:30.790Z,99.90
2019-05-06T23:28:59.269Z,99.90
2019-05-06T23:31:27.734Z,99.90
2019-05-06T23:33:56.178Z,99.90
2019-05-06T23:36:28.569Z,99.90
2019-05-06T23:39:33.223Z,99.90
2019-05-06T23:42:37.831Z,99.90
2019-05-06T23:45:42.513Z,99.90
2019-05-06T23:48:46.998Z,99.90
2019-05-06T23:51:53.172Z,99.90
2019-05-06T23:54:57.560Z,99.90
2019-05-06T23:57:25.025Z,99.90
2019-05-06T23:59:54.574Z,99.90
